sensor_id;sensor_type;location;lat;lon;timestamp;temperature;humidity
21331;DHT22;10824;51.632;4.950;2023-03-19T00:00:29;11.00;99.90
21331;DHT22;10824;51.632;4.950;2023-03-19T00:02:56;11.00;99.90
21331;DHT22;10824;51.632;4.950;2023-03-19T00:05:23;11.00;99.90
21331;DHT22;10824;51.632;4.950;2023-03-19T00:07:51;11.00;99.90
21331;DHT22;10824;51.632;4.950;2023-03-19T00:10:18;11.00;99.90
21331;DHT22;10824;51.632;4.950;2023-03-19T00:12:45;11.00;99.90
21331;DHT22;10824;51.632;4.950;2023-03-19T00:15:14;11.00;99.90
21331;DHT22;10824;51.632;4.950;2023-03-19T00:17:41;11.00;99.90
21331;DHT22;10824;51.632;4.950;2023-03-19T00:20:11;11.00;99.90
21331;DHT22;10824;51.632;4.950;2023-03-19T00:22:38;11.00;99.90
21331;DHT22;10824;51.632;4.950;2023-03-19T00:25:07;10.90;99.90
21331;DHT22;10824;51.632;4.950;2023-03-19T00:27:35;10.90;99.90
21331;DHT22;10824;51.632;4.950;2023-03-19T00:30:05;10.90;99.90
21331;DHT22;10824;51.632;4.950;2023-03-19T00:32:33;10.90;99.90
21331;DHT22;10824;51.632;4.950;2023-03-19T00:35:01;10.90;99.90
21331;DHT22;10824;51.632;4.950;2023-03-19T00:37:28;10.90;99.90
21331;DHT22;10824;51.632;4.950;2023-03-19T00:39:55;10.90;99.90
21331;DHT22;10824;51.632;4.950;2023-03-19T00:42:22;10.90;99.90
21331;DHT22;10824;51.632;4.950;2023-03-19T00:44:50;10.90;99.90
21331;DHT22;10824;51.632;4.950;2023-03-19T00:47:17;10.90;99.90
21331;DHT22;10824;51.632;4.950;2023-03-19T00:49:44;10.90;99.90
21331;DHT22;10824;51.632;4.950;2023-03-19T00:52:11;10.90;99.90
21331;DHT22;10824;51.632;4.950;2023-03-19T00:54:39;10.90;99.90
21331;DHT22;10824;51.632;4.950;2023-03-19T00:57:06;10.90;99.90
21331;DHT22;10824;51.632;4.950;2023-03-19T00:59:33;10.90;99.90
21331;DHT22;10824;51.632;4.950;2023-03-19T01:02:02;10.90;99.90
21331;DHT22;10824;51.632;4.950;2023-03-19T01:04:29;10.90;99.90
21331;DHT22;10824;51.632;4.950;2023-03-19T01:06:56;10.90;99.90
21331;DHT22;10824;51.632;4.950;2023-03-19T01:09:25;10.90;99.90
21331;DHT22;10824;51.632;4.950;2023-03-19T01:11:52;10.90;99.90
21331;DHT22;10824;51.632;4.950;2023-03-19T01:14:20;10.90;99.90
21331;DHT22;10824;51.632;4.950;2023-03-19T01:16:47;10.90;99.90
21331;DHT22;10824;51.632;4.950;2023-03-19T01:19:14;10.90;99.90
21331;DHT22;10824;51.632;4.950;2023-03-19T01:21:42;10.80;99.90
21331;DHT22;10824;51.632;4.950;2023-03-19T01:24:15;10.80;99.90
21331;DHT22;10824;51.632;4.950;2023-03-19T01:26:45;10.70;99.90
21331;DHT22;10824;51.632;4.950;2023-03-19T01:29:19;10.70;99.90
21331;DHT22;10824;51.632;4.950;2023-03-19T01:31:46;10.70;99.90
21331;DHT22;10824;51.632;4.950;2023-03-19T01:34:39;10.70;99.90
21331;DHT22;10824;51.632;4.950;2023-03-19T01:37:08;10.70;99.90
21331;DHT22;10824;51.632;4.950;2023-03-19T01:39:37;10.60;99.90
21331;DHT22;10824;51.632;4.950;2023-03-19T01:42:09;10.60;99.90
21331;DHT22;10824;51.632;4.950;2023-03-19T01:44:44;10.60;99.90
21331;DHT22;10824;51.632;4.950;2023-03-19T01:47:44;10.60;99.90
21331;DHT22;10824;51.632;4.950;2023-03-19T01:50:38;10.60;99.90
21331;DHT22;10824;51.632;4.950;2023-03-19T01:53:30;10.60;99.90
21331;DHT22;10824;51.632;4.950;2023-03-19T01:56:21;10.60;99.90
21331;DHT22;10824;51.632;4.950;2023-03-19T01:59:29;10.60;99.90
21331;DHT22;10824;51.632;4.950;2023-03-19T02:02:27;10.60;99.90
21331;DHT22;10824;51.632;4.950;2023-03-19T02:05:08;10.60;99.90
21331;DHT22;10824;51.632;4.950;2023-03-19T02:07:38;10.50;99.90
21331;DHT22;10824;51.632;4.950;2023-03-19T02:10:10;10.50;99.90
21331;DHT22;10824;51.632;4.950;2023-03-19T02:12:38;10.50;99.90
21331;DHT22;10824;51.632;4.950;2023-03-19T02:15:05;10.50;99.90
21331;DHT22;10824;51.632;4.950;2023-03-19T02:17:36;10.50;99.90
21331;DHT22;10824;51.632;4.950;2023-03-19T02:20:14;10.50;99.90
21331;DHT22;10824;51.632;4.950;2023-03-19T02:28:23;10.40;99.90
21331;DHT22;10824;51.632;4.950;2023-03-19T02:30:53;10.40;99.90
21331;DHT22;10824;51.632;4.950;2023-03-19T02:33:20;10.40;99.90
21331;DHT22;10824;51.632;4.950;2023-03-19T02:35:50;10.40;99.90
21331;DHT22;10824;51.632;4.950;2023-03-19T02:38:18;10.40;99.90
21331;DHT22;10824;51.632;4.950;2023-03-19T02:40:59;10.40;99.90
21331;DHT22;10824;51.632;4.950;2023-03-19T02:43:27;10.30;99.90
21331;DHT22;10824;51.632;4.950;2023-03-19T02:45:55;10.30;99.90
21331;DHT22;10824;51.632;4.950;2023-03-19T02:48:24;10.20;99.90
21331;DHT22;10824;51.632;4.950;2023-03-19T02:50:51;10.20;99.90
21331;DHT22;10824;51.632;4.950;2023-03-19T02:53:18;10.10;99.90
21331;DHT22;10824;51.632;4.950;2023-03-19T02:55:45;10.10;99.90
21331;DHT22;10824;51.632;4.950;2023-03-19T02:58:12;10.00;99.90
21331;DHT22;10824;51.632;4.950;2023-03-19T03:00:41;10.10;99.90
21331;DHT22;10824;51.632;4.950;2023-03-19T03:03:08;10.00;99.90
21331;DHT22;10824;51.632;4.950;2023-03-19T03:05:36;10.00;99.90
21331;DHT22;10824;51.632;4.950;2023-03-19T03:08:03;10.00;99.90
21331;DHT22;10824;51.632;4.950;2023-03-19T03:10:32;9.90;99.90
21331;DHT22;10824;51.632;4.950;2023-03-19T03:12:59;9.80;99.90
21331;DHT22;10824;51.632;4.950;2023-03-19T03:15:27;9.80;99.90
21331;DHT22;10824;51.632;4.950;2023-03-19T03:17:54;9.80;99.90
21331;DHT22;10824;51.632;4.950;2023-03-19T03:20:22;9.80;99.90
21331;DHT22;10824;51.632;4.950;2023-03-19T03:22:51;9.80;99.90
21331;DHT22;10824;51.632;4.950;2023-03-19T03:25:19;9.70;99.90
21331;DHT22;10824;51.632;4.950;2023-03-19T03:27:47;9.70;99.90
21331;DHT22;10824;51.632;4.950;2023-03-19T03:30:14;9.70;99.90
21331;DHT22;10824;51.632;4.950;2023-03-19T03:32:42;9.60;99.90
21331;DHT22;10824;51.632;4.950;2023-03-19T03:35:10;9.60;99.90
21331;DHT22;10824;51.632;4.950;2023-03-19T03:37:37;9.60;99.90
21331;DHT22;10824;51.632;4.950;2023-03-19T03:40:06;9.50;99.90
21331;DHT22;10824;51.632;4.950;2023-03-19T03:42:35;9.50;99.90
21331;DHT22;10824;51.632;4.950;2023-03-19T03:45:07;9.50;99.90
21331;DHT22;10824;51.632;4.950;2023-03-19T03:47:36;9.40;99.90
21331;DHT22;10824;51.632;4.950;2023-03-19T03:50:03;9.40;99.90
21331;DHT22;10824;51.632;4.950;2023-03-19T03:52:31;9.30;99.90
21331;DHT22;10824;51.632;4.950;2023-03-19T03:55:00;9.30;99.90
21331;DHT22;10824;51.632;4.950;2023-03-19T03:57:27;9.20;99.90
21331;DHT22;10824;51.632;4.950;2023-03-19T03:59:55;9.20;99.90
21331;DHT22;10824;51.632;4.950;2023-03-19T04:02:22;9.20;99.90
21331;DHT22;10824;51.632;4.950;2023-03-19T04:04:51;9.10;99.90
21331;DHT22;10824;51.632;4.950;2023-03-19T04:07:18;9.10;99.90
21331;DHT22;10824;51.632;4.950;2023-03-19T04:09:50;9.10;99.90
21331;DHT22;10824;51.632;4.950;2023-03-19T04:12:17;9.10;99.90
21331;DHT22;10824;51.632;4.950;2023-03-19T04:14:46;9.00;99.90
21331;DHT22;10824;51.632;4.950;2023-03-19T04:17:13;9.00;99.90
21331;DHT22;10824;51.632;4.950;2023-03-19T04:19:40;9.00;99.90
21331;DHT22;10824;51.632;4.950;2023-03-19T04:22:09;8.90;99.90
21331;DHT22;10824;51.632;4.950;2023-03-19T04:24:36;8.90;99.90
21331;DHT22;10824;51.632;4.950;2023-03-19T04:27:03;8.80;99.90
21331;DHT22;10824;51.632;4.950;2023-03-19T04:29:31;8.80;99.90
21331;DHT22;10824;51.632;4.950;2023-03-19T04:31:59;8.80;99.90
21331;DHT22;10824;51.632;4.950;2023-03-19T04:34:26;8.70;99.90
21331;DHT22;10824;51.632;4.950;2023-03-19T04:36:53;8.60;99.90
21331;DHT22;10824;51.632;4.950;2023-03-19T04:39:20;8.60;99.90
21331;DHT22;10824;51.632;4.950;2023-03-19T04:41:50;8.50;99.90
21331;DHT22;10824;51.632;4.950;2023-03-19T04:44:28;8.50;99.90
21331;DHT22;10824;51.632;4.950;2023-03-19T04:46:57;8.50;99.90
21331;DHT22;10824;51.632;4.950;2023-03-19T04:49:25;8.40;99.90
21331;DHT22;10824;51.632;4.950;2023-03-19T04:51:54;8.50;99.90
21331;DHT22;10824;51.632;4.950;2023-03-19T04:54:23;8.50;99.90
21331;DHT22;10824;51.632;4.950;2023-03-19T04:56:51;8.50;99.90
21331;DHT22;10824;51.632;4.950;2023-03-19T04:59:21;8.50;99.90
21331;DHT22;10824;51.632;4.950;2023-03-19T05:01:49;8.40;99.90
21331;DHT22;10824;51.632;4.950;2023-03-19T05:04:20;8.40;99.90
21331;DHT22;10824;51.632;4.950;2023-03-19T05:06:51;8.40;99.90
21331;DHT22;10824;51.632;4.950;2023-03-19T05:09:19;8.40;99.90
21331;DHT22;10824;51.632;4.950;2023-03-19T05:11:46;8.40;99.90
21331;DHT22;10824;51.632;4.950;2023-03-19T05:14:18;8.40;99.90
21331;DHT22;10824;51.632;4.950;2023-03-19T05:17:08;8.50;99.90
21331;DHT22;10824;51.632;4.950;2023-03-19T05:19:48;8.40;99.90
21331;DHT22;10824;51.632;4.950;2023-03-19T05:22:16;8.40;99.90
21331;DHT22;10824;51.632;4.950;2023-03-19T05:24:44;8.50;99.90
21331;DHT22;10824;51.632;4.950;2023-03-19T05:27:12;8.40;99.90
21331;DHT22;10824;51.632;4.950;2023-03-19T05:29:48;8.40;99.90
21331;DHT22;10824;51.632;4.950;2023-03-19T05:32:55;8.50;99.90
21331;DHT22;10824;51.632;4.950;2023-03-19T05:35:30;8.40;99.90
21331;DHT22;10824;51.632;4.950;2023-03-19T05:37:58;8.50;99.90
21331;DHT22;10824;51.632;4.950;2023-03-19T05:40:27;8.40;99.90
21331;DHT22;10824;51.632;4.950;2023-03-19T05:42:56;8.50;99.90
21331;DHT22;10824;51.632;4.950;2023-03-19T05:45:26;8.40;99.90
21331;DHT22;10824;51.632;4.950;2023-03-19T05:47:57;8.40;99.90
21331;DHT22;10824;51.632;4.950;2023-03-19T05:50:24;8.40;99.90
21331;DHT22;10824;51.632;4.950;2023-03-19T05:53:15;8.40;99.90
21331;DHT22;10824;51.632;4.950;2023-03-19T05:55:52;8.30;99.90
21331;DHT22;10824;51.632;4.950;2023-03-19T05:58:19;8.30;99.90
21331;DHT22;10824;51.632;4.950;2023-03-19T06:00:47;8.30;99.90
21331;DHT22;10824;51.632;4.950;2023-03-19T06:03:14;8.30;99.90
21331;DHT22;10824;51.632;4.950;2023-03-19T06:05:48;8.30;99.90
21331;DHT22;10824;51.632;4.950;2023-03-19T06:08:33;8.30;99.90
21331;DHT22;10824;51.632;4.950;2023-03-19T06:11:08;8.30;99.90
21331;DHT22;10824;51.632;4.950;2023-03-19T06:13:36;8.30;99.90
21331;DHT22;10824;51.632;4.950;2023-03-19T06:16:06;8.30;99.90
21331;DHT22;10824;51.632;4.950;2023-03-19T06:18:37;8.30;99.90
21331;DHT22;10824;51.632;4.950;2023-03-19T06:21:08;8.40;99.90
21331;DHT22;10824;51.632;4.950;2023-03-19T06:23:36;8.30;99.90
21331;DHT22;10824;51.632;4.950;2023-03-19T06:26:04;8.40;99.90
21331;DHT22;10824;51.632;4.950;2023-03-19T06:28:39;8.40;99.90
21331;DHT22;10824;51.632;4.950;2023-03-19T06:31:07;8.40;99.90
21331;DHT22;10824;51.632;4.950;2023-03-19T06:33:53;8.40;99.90
21331;DHT22;10824;51.632;4.950;2023-03-19T06:36:23;8.40;99.90
21331;DHT22;10824;51.632;4.950;2023-03-19T06:38:52;8.40;99.90
21331;DHT22;10824;51.632;4.950;2023-03-19T06:41:19;8.50;99.90
21331;DHT22;10824;51.632;4.950;2023-03-19T06:43:48;8.50;99.90
21331;DHT22;10824;51.632;4.950;2023-03-19T06:46:15;8.50;99.90
21331;DHT22;10824;51.632;4.950;2023-03-19T06:48:42;8.50;99.90
21331;DHT22;10824;51.632;4.950;2023-03-19T06:51:10;8.50;99.90
21331;DHT22;10824;51.632;4.950;2023-03-19T06:53:38;8.50;99.90
21331;DHT22;10824;51.632;4.950;2023-03-19T06:56:05;8.50;99.90
21331;DHT22;10824;51.632;4.950;2023-03-19T06:58:32;8.50;99.90
21331;DHT22;10824;51.632;4.950;2023-03-19T07:01:02;8.60;99.90
21331;DHT22;10824;51.632;4.950;2023-03-19T07:03:29;8.60;99.90
21331;DHT22;10824;51.632;4.950;2023-03-19T07:05:57;8.60;99.90
21331;DHT22;10824;51.632;4.950;2023-03-19T07:08:24;8.60;99.90
21331;DHT22;10824;51.632;4.950;2023-03-19T07:10:56;8.70;99.90
21331;DHT22;10824;51.632;4.950;2023-03-19T07:13:23;8.70;99.90
21331;DHT22;10824;51.632;4.950;2023-03-19T07:15:50;8.80;99.90
21331;DHT22;10824;51.632;4.950;2023-03-19T07:18:17;8.80;99.90
21331;DHT22;10824;51.632;4.950;2023-03-19T07:20:45;8.80;99.90
21331;DHT22;10824;51.632;4.950;2023-03-19T07:23:12;8.90;99.90
21331;DHT22;10824;51.632;4.950;2023-03-19T07:25:39;8.90;99.90
21331;DHT22;10824;51.632;4.950;2023-03-19T07:28:06;9.00;99.90
21331;DHT22;10824;51.632;4.950;2023-03-19T07:30:33;9.10;99.90
21331;DHT22;10824;51.632;4.950;2023-03-19T07:33:01;9.20;99.90
21331;DHT22;10824;51.632;4.950;2023-03-19T07:35:29;9.20;99.90
21331;DHT22;10824;51.632;4.950;2023-03-19T07:37:56;9.20;99.90
21331;DHT22;10824;51.632;4.950;2023-03-19T07:40:23;9.20;99.90
21331;DHT22;10824;51.632;4.950;2023-03-19T07:42:50;9.20;99.90
21331;DHT22;10824;51.632;4.950;2023-03-19T07:45:17;9.30;99.90
21331;DHT22;10824;51.632;4.950;2023-03-19T07:47:44;9.30;99.90
21331;DHT22;10824;51.632;4.950;2023-03-19T07:50:16;9.30;99.90
21331;DHT22;10824;51.632;4.950;2023-03-19T07:52:47;9.30;99.90
21331;DHT22;10824;51.632;4.950;2023-03-19T07:55:14;9.30;99.90
21331;DHT22;10824;51.632;4.950;2023-03-19T07:57:41;9.30;99.90
21331;DHT22;10824;51.632;4.950;2023-03-19T08:00:09;9.30;99.90
21331;DHT22;10824;51.632;4.950;2023-03-19T08:02:39;9.40;99.90
21331;DHT22;10824;51.632;4.950;2023-03-19T08:05:08;9.40;99.90
21331;DHT22;10824;51.632;4.950;2023-03-19T08:07:36;9.40;99.90
21331;DHT22;10824;51.632;4.950;2023-03-19T08:10:04;9.40;99.90
21331;DHT22;10824;51.632;4.950;2023-03-19T08:12:31;9.40;99.90
21331;DHT22;10824;51.632;4.950;2023-03-19T08:15:00;9.50;99.90
21331;DHT22;10824;51.632;4.950;2023-03-19T08:17:27;9.60;99.90
21331;DHT22;10824;51.632;4.950;2023-03-19T08:19:54;9.60;99.90
21331;DHT22;10824;51.632;4.950;2023-03-19T08:22:21;9.60;99.90
21331;DHT22;10824;51.632;4.950;2023-03-19T08:24:48;9.60;99.90
21331;DHT22;10824;51.632;4.950;2023-03-19T08:27:15;9.70;99.90
21331;DHT22;10824;51.632;4.950;2023-03-19T08:29:42;9.80;99.90
21331;DHT22;10824;51.632;4.950;2023-03-19T08:32:09;9.80;99.90
21331;DHT22;10824;51.632;4.950;2023-03-19T08:34:37;9.90;99.90
21331;DHT22;10824;51.632;4.950;2023-03-19T08:37:04;10.00;99.90
21331;DHT22;10824;51.632;4.950;2023-03-19T08:39:32;10.10;99.90
21331;DHT22;10824;51.632;4.950;2023-03-19T08:41:59;10.20;99.90
21331;DHT22;10824;51.632;4.950;2023-03-19T08:44:26;10.30;99.90
21331;DHT22;10824;51.632;4.950;2023-03-19T08:46:53;10.30;99.90
21331;DHT22;10824;51.632;4.950;2023-03-19T08:49:20;10.50;99.90
21331;DHT22;10824;51.632;4.950;2023-03-19T08:51:47;10.60;99.90
21331;DHT22;10824;51.632;4.950;2023-03-19T08:54:15;10.60;99.90
21331;DHT22;10824;51.632;4.950;2023-03-19T08:56:43;10.70;99.90
21331;DHT22;10824;51.632;4.950;2023-03-19T08:59:10;10.80;99.90
21331;DHT22;10824;51.632;4.950;2023-03-19T09:01:37;10.80;99.90
21331;DHT22;10824;51.632;4.950;2023-03-19T09:04:04;10.90;99.90
21331;DHT22;10824;51.632;4.950;2023-03-19T09:06:31;10.90;99.90
21331;DHT22;10824;51.632;4.950;2023-03-19T09:08:59;10.90;99.90
21331;DHT22;10824;51.632;4.950;2023-03-19T09:11:26;11.00;99.90
21331;DHT22;10824;51.632;4.950;2023-03-19T09:13:53;11.00;99.90
21331;DHT22;10824;51.632;4.950;2023-03-19T09:16:20;11.10;99.90
21331;DHT22;10824;51.632;4.950;2023-03-19T09:18:47;11.10;99.90
21331;DHT22;10824;51.632;4.950;2023-03-19T09:21:14;11.20;99.90
21331;DHT22;10824;51.632;4.950;2023-03-19T09:23:42;11.20;99.90
21331;DHT22;10824;51.632;4.950;2023-03-19T09:26:08;11.30;99.90
21331;DHT22;10824;51.632;4.950;2023-03-19T09:28:36;11.30;99.90
21331;DHT22;10824;51.632;4.950;2023-03-19T09:31:07;11.30;99.90
21331;DHT22;10824;51.632;4.950;2023-03-19T09:33:35;11.30;99.90
21331;DHT22;10824;51.632;4.950;2023-03-19T09:36:02;11.30;99.90
21331;DHT22;10824;51.632;4.950;2023-03-19T09:38:29;11.30;99.90
21331;DHT22;10824;51.632;4.950;2023-03-19T09:46:22;11.70;99.90
21331;DHT22;10824;51.632;4.950;2023-03-19T09:48:55;11.70;99.90
21331;DHT22;10824;51.632;4.950;2023-03-19T09:51:29;11.70;99.90
21331;DHT22;10824;51.632;4.950;2023-03-19T09:54:06;11.70;99.90
21331;DHT22;10824;51.632;4.950;2023-03-19T09:56:34;11.80;99.90
21331;DHT22;10824;51.632;4.950;2023-03-19T09:59:01;11.80;99.90
21331;DHT22;10824;51.632;4.950;2023-03-19T10:01:34;11.70;99.90
21331;DHT22;10824;51.632;4.950;2023-03-19T10:06:52;12.00;99.90
21331;DHT22;10824;51.632;4.950;2023-03-19T10:09:48;12.00;99.90
21331;DHT22;10824;51.632;4.950;2023-03-19T10:20:24;12.00;99.90
21331;DHT22;10824;51.632;4.950;2023-03-19T10:25:33;11.90;99.40
21331;DHT22;10824;51.632;4.950;2023-03-19T10:28:14;12.10;99.90
21331;DHT22;10824;51.632;4.950;2023-03-19T10:30:45;12.00;98.10
21331;DHT22;10824;51.632;4.950;2023-03-19T10:33:22;11.80;97.20
21331;DHT22;10824;51.632;4.950;2023-03-19T10:36:19;11.90;98.30
21331;DHT22;10824;51.632;4.950;2023-03-19T10:38:50;11.90;98.30
21331;DHT22;10824;51.632;4.950;2023-03-19T10:42:07;11.90;98.60
21331;DHT22;10824;51.632;4.950;2023-03-19T10:44:30;11.90;98.00
21331;DHT22;10824;51.632;4.950;2023-03-19T10:47:14;12.00;99.20
21331;DHT22;10824;51.632;4.950;2023-03-19T10:49:42;11.90;96.50
21331;DHT22;10824;51.632;4.950;2023-03-19T10:52:23;11.90;96.90
21331;DHT22;10824;51.632;4.950;2023-03-19T10:55:02;11.70;96.70
21331;DHT22;10824;51.632;4.950;2023-03-19T10:57:30;11.80;96.60
21331;DHT22;10824;51.632;4.950;2023-03-19T11:00:05;11.90;97.20
21331;DHT22;10824;51.632;4.950;2023-03-19T11:02:36;12.10;99.00
21331;DHT22;10824;51.632;4.950;2023-03-19T11:07:38;12.10;96.00
21331;DHT22;10824;51.632;4.950;2023-03-19T11:10:15;12.20;95.40
21331;DHT22;10824;51.632;4.950;2023-03-19T11:12:51;12.10;95.60
21331;DHT22;10824;51.632;4.950;2023-03-19T11:15:23;12.10;96.70
21331;DHT22;10824;51.632;4.950;2023-03-19T11:17:57;12.10;97.50
21331;DHT22;10824;51.632;4.950;2023-03-19T11:22:54;12.20;96.70
21331;DHT22;10824;51.632;4.950;2023-03-19T11:25:28;12.00;94.00
21331;DHT22;10824;51.632;4.950;2023-03-19T11:42:14;12.20;94.90
21331;DHT22;10824;51.632;4.950;2023-03-19T11:45:01;12.40;95.30
21331;DHT22;10824;51.632;4.950;2023-03-19T11:48:05;12.40;95.00
21331;DHT22;10824;51.632;4.950;2023-03-19T11:53:45;12.60;92.50
21331;DHT22;10824;51.632;4.950;2023-03-19T11:56:53;12.50;92.10
21331;DHT22;10824;51.632;4.950;2023-03-19T11:59:46;12.50;92.90
21331;DHT22;10824;51.632;4.950;2023-03-19T12:02:20;12.40;92.70
21331;DHT22;10824;51.632;4.950;2023-03-19T12:05:16;12.50;92.60
21331;DHT22;10824;51.632;4.950;2023-03-19T12:30:14;12.70;90.70
21331;DHT22;10824;51.632;4.950;2023-03-19T12:35:53;13.00;86.60
21331;DHT22;10824;51.632;4.950;2023-03-19T12:38:45;13.00;86.30
21331;DHT22;10824;51.632;4.950;2023-03-19T12:41:31;13.00;84.40
21331;DHT22;10824;51.632;4.950;2023-03-19T12:46:39;13.10;84.30
21331;DHT22;10824;51.632;4.950;2023-03-19T12:54:37;13.20;79.00
21331;DHT22;10824;51.632;4.950;2023-03-19T12:57:11;13.40;79.40
21331;DHT22;10824;51.632;4.950;2023-03-19T12:59:57;13.60;75.50
21331;DHT22;10824;51.632;4.950;2023-03-19T13:05:06;13.70;77.00
21331;DHT22;10824;51.632;4.950;2023-03-19T13:07:48;13.70;76.50
21331;DHT22;10824;51.632;4.950;2023-03-19T13:10:20;13.80;74.60
21331;DHT22;10824;51.632;4.950;2023-03-19T13:12:49;13.90;76.60
21331;DHT22;10824;51.632;4.950;2023-03-19T13:15:32;13.90;75.30
21331;DHT22;10824;51.632;4.950;2023-03-19T13:23:26;13.90;76.30
21331;DHT22;10824;51.632;4.950;2023-03-19T13:25:57;14.20;75.30
21331;DHT22;10824;51.632;4.950;2023-03-19T13:28:33;14.30;69.10
21331;DHT22;10824;51.632;4.950;2023-03-19T13:31:18;14.20;67.80
21331;DHT22;10824;51.632;4.950;2023-03-19T13:33:54;14.40;64.20
21331;DHT22;10824;51.632;4.950;2023-03-19T13:36:27;14.80;58.90
21331;DHT22;10824;51.632;4.950;2023-03-19T13:38:58;14.80;57.60
21331;DHT22;10824;51.632;4.950;2023-03-19T13:47:35;13.80;61.60
21331;DHT22;10824;51.632;4.950;2023-03-19T13:57:57;13.90;61.50
21331;DHT22;10824;51.632;4.950;2023-03-19T14:03:27;14.30;56.00
21331;DHT22;10824;51.632;4.950;2023-03-19T14:05:56;14.60;54.90
21331;DHT22;10824;51.632;4.950;2023-03-19T14:08:26;14.40;54.20
21331;DHT22;10824;51.632;4.950;2023-03-19T14:10:56;14.30;53.60
21331;DHT22;10824;51.632;4.950;2023-03-19T14:16:06;14.30;53.00
21331;DHT22;10824;51.632;4.950;2023-03-19T14:18:39;14.30;52.60
21331;DHT22;10824;51.632;4.950;2023-03-19T14:21:12;14.30;49.80
21331;DHT22;10824;51.632;4.950;2023-03-19T14:23:52;14.30;50.10
21331;DHT22;10824;51.632;4.950;2023-03-19T14:26:23;14.20;50.80
21331;DHT22;10824;51.632;4.950;2023-03-19T14:29:03;14.10;50.20
21331;DHT22;10824;51.632;4.950;2023-03-19T14:39:42;14.00;51.30
21331;DHT22;10824;51.632;4.950;2023-03-19T14:56:46;13.80;51.60
21331;DHT22;10824;51.632;4.950;2023-03-19T14:59:13;13.80;51.50
21331;DHT22;10824;51.632;4.950;2023-03-19T15:01:49;13.80;53.20
21331;DHT22;10824;51.632;4.950;2023-03-19T15:04:20;13.60;50.20
21331;DHT22;10824;51.632;4.950;2023-03-19T15:06:53;13.50;51.10
21331;DHT22;10824;51.632;4.950;2023-03-19T15:09:28;13.60;52.00
21331;DHT22;10824;51.632;4.950;2023-03-19T15:15:55;13.50;53.30
21331;DHT22;10824;51.632;4.950;2023-03-19T15:18:18;13.50;53.90
21331;DHT22;10824;51.632;4.950;2023-03-19T15:20:50;13.10;58.80
21331;DHT22;10824;51.632;4.950;2023-03-19T15:23:29;13.00;63.30
21331;DHT22;10824;51.632;4.950;2023-03-19T15:26:00;13.00;63.20
21331;DHT22;10824;51.632;4.950;2023-03-19T15:28:32;13.00;63.50
21331;DHT22;10824;51.632;4.950;2023-03-19T15:31:11;12.90;61.20
21331;DHT22;10824;51.632;4.950;2023-03-19T15:33:58;12.80;60.30
21331;DHT22;10824;51.632;4.950;2023-03-19T15:36:30;12.90;60.80
21331;DHT22;10824;51.632;4.950;2023-03-19T15:39:05;12.80;58.80
21331;DHT22;10824;51.632;4.950;2023-03-19T15:41:37;12.80;59.10
21331;DHT22;10824;51.632;4.950;2023-03-19T15:44:14;12.80;59.90
21331;DHT22;10824;51.632;4.950;2023-03-19T15:46:43;12.70;60.50
21331;DHT22;10824;51.632;4.950;2023-03-19T15:49:25;12.70;60.20
21331;DHT22;10824;51.632;4.950;2023-03-19T15:51:57;12.70;61.90
21331;DHT22;10824;51.632;4.950;2023-03-19T15:54:25;12.80;59.10
21331;DHT22;10824;51.632;4.950;2023-03-19T15:56:53;12.80;56.10
21331;DHT22;10824;51.632;4.950;2023-03-19T15:59:22;12.70;55.00
21331;DHT22;10824;51.632;4.950;2023-03-19T16:01:59;12.80;54.80
21331;DHT22;10824;51.632;4.950;2023-03-19T16:04:27;12.70;56.60
21331;DHT22;10824;51.632;4.950;2023-03-19T16:07:23;12.80;57.60
21331;DHT22;10824;51.632;4.950;2023-03-19T16:09:50;13.00;56.60
21331;DHT22;10824;51.632;4.950;2023-03-19T16:12:37;13.00;56.20
21331;DHT22;10824;51.632;4.950;2023-03-19T16:17:54;12.60;52.10
21331;DHT22;10824;51.632;4.950;2023-03-19T16:20:28;12.50;52.00
21331;DHT22;10824;51.632;4.950;2023-03-19T16:22:56;12.50;50.60
21331;DHT22;10824;51.632;4.950;2023-03-19T16:25:28;12.60;50.70
21331;DHT22;10824;51.632;4.950;2023-03-19T16:27:58;12.60;49.50
21331;DHT22;10824;51.632;4.950;2023-03-19T16:30:27;12.10;51.10
21331;DHT22;10824;51.632;4.950;2023-03-19T16:33:02;12.20;52.50
21331;DHT22;10824;51.632;4.950;2023-03-19T16:35:31;12.00;51.00
21331;DHT22;10824;51.632;4.950;2023-03-19T16:38:12;11.90;53.30
21331;DHT22;10824;51.632;4.950;2023-03-19T16:40:45;12.00;54.60
21331;DHT22;10824;51.632;4.950;2023-03-19T16:43:17;11.90;56.70
21331;DHT22;10824;51.632;4.950;2023-03-19T16:45:49;11.80;58.40
21331;DHT22;10824;51.632;4.950;2023-03-19T16:48:16;11.70;61.70
21331;DHT22;10824;51.632;4.950;2023-03-19T16:50:44;11.40;61.30
21331;DHT22;10824;51.632;4.950;2023-03-19T16:53:28;11.60;64.60
21331;DHT22;10824;51.632;4.950;2023-03-19T16:55:57;11.70;66.00
21331;DHT22;10824;51.632;4.950;2023-03-19T17:00:55;11.50;66.30
21331;DHT22;10824;51.632;4.950;2023-03-19T17:03:22;11.50;67.10
21331;DHT22;10824;51.632;4.950;2023-03-19T17:05:51;11.30;69.30
21331;DHT22;10824;51.632;4.950;2023-03-19T17:08:18;11.40;73.80
21331;DHT22;10824;51.632;4.950;2023-03-19T17:10:49;11.20;72.60
21331;DHT22;10824;51.632;4.950;2023-03-19T17:13:27;11.20;73.40
21331;DHT22;10824;51.632;4.950;2023-03-19T17:16:04;11.00;75.40
21331;DHT22;10824;51.632;4.950;2023-03-19T17:18:40;11.00;75.90
21331;DHT22;10824;51.632;4.950;2023-03-19T17:21:20;11.00;76.20
21331;DHT22;10824;51.632;4.950;2023-03-19T17:23:51;11.10;77.30
21331;DHT22;10824;51.632;4.950;2023-03-19T17:26:22;10.90;77.40
21331;DHT22;10824;51.632;4.950;2023-03-19T17:28:53;10.80;78.20
21331;DHT22;10824;51.632;4.950;2023-03-19T17:31:29;10.80;78.80
21331;DHT22;10824;51.632;4.950;2023-03-19T17:34:03;10.90;78.60
21331;DHT22;10824;51.632;4.950;2023-03-19T17:36:30;10.80;78.30
21331;DHT22;10824;51.632;4.950;2023-03-19T17:38:58;10.70;79.50
21331;DHT22;10824;51.632;4.950;2023-03-19T17:41:25;10.70;80.90
21331;DHT22;10824;51.632;4.950;2023-03-19T17:43:52;10.70;81.20
21331;DHT22;10824;51.632;4.950;2023-03-19T17:46:23;10.60;79.90
21331;DHT22;10824;51.632;4.950;2023-03-19T17:48:52;10.50;82.10
21331;DHT22;10824;51.632;4.950;2023-03-19T17:51:22;10.30;81.50
21331;DHT22;10824;51.632;4.950;2023-03-19T17:53:51;10.30;82.40
21331;DHT22;10824;51.632;4.950;2023-03-19T17:56:21;10.40;83.30
21331;DHT22;10824;51.632;4.950;2023-03-19T17:58:52;10.30;85.50
21331;DHT22;10824;51.632;4.950;2023-03-19T18:01:22;10.30;84.20
21331;DHT22;10824;51.632;4.950;2023-03-19T18:03:54;10.30;84.70
21331;DHT22;10824;51.632;4.950;2023-03-19T18:06:24;10.10;87.00
21331;DHT22;10824;51.632;4.950;2023-03-19T18:08:52;9.90;88.00
21331;DHT22;10824;51.632;4.950;2023-03-19T18:11:23;9.90;90.70
21331;DHT22;10824;51.632;4.950;2023-03-19T18:13:50;10.10;90.10
21331;DHT22;10824;51.632;4.950;2023-03-19T18:16:30;10.00;89.70
21331;DHT22;10824;51.632;4.950;2023-03-19T18:19:00;10.10;90.00
21331;DHT22;10824;51.632;4.950;2023-03-19T18:21:27;10.10;88.70